AGU weather

Jesús Terán Paredo International Airport
Aguascalientes, Aguascalientes, Mexico

Public forecast

Using degrees Celsius for public forecast. Weather courtesy of forecast.io.

Current aviation weather report (METAR) for Jesús Terán Paredo International Airport

Retrieved 2019/10/17 00:43 UTC (0 seconds ago):

MMAS 170043Z 07007KT 10SM BKN100 BKN200 22/07 A3014 RMK 8/078 PRESRR

Aviation forecast (TAF) for Jesús Terán Paredo International Airport

Forecast is more than 6 hours old.

Retrieved 2019/10/16 18:00 UTC (6 hours ago):

TAF TAF MMAS 161658Z 1618/1718 08010KT P6SM SCT030 BKN220BWECMG 1620/1621 09015KT FM170200 07010KT P6SM BKN220 BECMG 1705/1706 04005KT FM171600 04006KT P6SM SCT100 BKN220